Time;durP1;ratioP1;P1;durP2;ratioP2;P2;SDS_P1;SDS_P2;PMS_P1;PMS_P2;Temp;Humidity;BMP_temperature;BMP_pressure;BME280_temperature;BME280_humidity;BME280_pressure;Samples;Min_cycle;Max_cycle;Signal;HPM_P1;HPM_P2
2023/04/19 00:01:32;;;;;;;33.22;28.60;;;10.30;77.00;;;;;;5019514;28;20482;-77
2023/04/19 00:03:58;;;;;;;36.45;30.15;;;10.20;77.20;;;;;;5021196;28;20090;-76
2023/04/19 00:06:25;;;;;;;35.20;29.67;;;10.20;77.10;;;;;;5021571;28;20030;-77
2023/04/19 00:08:51;;;;;;;33.78;29.98;;;10.20;77.20;;;;;;5013231;28;20030;-77
2023/04/19 00:11:16;;;;;;;34.90;29.13;;;10.10;77.50;;;;;;5026930;28;20046;-75
2023/04/19 00:13:42;;;;;;;35.40;29.35;;;10.10;77.50;;;;;;5022096;28;20032;-75
2023/04/19 00:16:08;;;;;;;35.30;29.63;;;10.10;77.60;;;;;;5032353;28;20565;-78
2023/04/19 00:18:34;;;;;;;35.92;30.10;;;10.10;77.70;;;;;;5029592;28;20341;-78
2023/04/19 00:21:01;;;;;;;36.92;31.75;;;10.10;77.70;;;;;;5023576;28;20038;-75
2023/04/19 00:23:27;;;;;;;37.05;29.83;;;10.00;77.90;;;;;;5016924;28;20047;-75
2023/04/19 00:25:52;;;;;;;33.78;28.88;;;10.00;77.90;;;;;;5023743;28;20083;-76
2023/04/19 00:28:18;;;;;;;36.13;30.10;;;10.00;78.10;;;;;;5022609;28;20033;-75
2023/04/19 00:30:44;;;;;;;35.30;30.67;;;9.90;78.10;;;;;;5024724;28;20026;-76
2023/04/19 00:33:11;;;;;;;36.95;30.80;;;9.90;78.20;;;;;;5014342;28;20038;-74
2023/04/19 00:35:43;;;;;;;36.88;31.58;;;9.90;78.50;;;;;;5028010;28;20021;-79
2023/04/19 00:38:09;;;;;;;39.60;32.13;;;9.90;78.50;;;;;;5034127;28;20420;-75
2023/04/19 00:40:36;;;;;;;34.95;31.10;;;9.90;78.50;;;;;;5027334;28;20067;-77
2023/04/19 00:43:02;;;;;;;35.72;30.45;;;9.80;78.60;;;;;;5015289;28;20041;-74
2023/04/19 00:45:27;;;;;;;36.58;30.75;;;9.80;78.70;;;;;;5026791;28;20341;-76
2023/04/19 00:47:54;;;;;;;37.00;30.27;;;9.80;78.70;;;;;;5027542;28;20753;-77
2023/04/19 00:50:21;;;;;;;35.35;30.42;;;9.80;78.80;;;;;;5025457;28;20033;-75
2023/04/19 00:52:47;;;;;;;37.90;30.80;;;9.70;78.90;;;;;;5020588;28;20502;-76
2023/04/19 00:55:13;;;;;;;37.30;32.67;;;9.70;79.10;;;;;;5026524;28;20102;-75
2023/04/19 00:57:39;;;;;;;38.03;31.42;;;9.60;79.10;;;;;;5018080;28;20061;-76
2023/04/19 01:00:08;;;;;;;41.75;31.95;;;9.70;79.20;;;;;;5022306;28;20042;-77
2023/04/19 01:02:34;;;;;;;38.72;32.40;;;9.60;79.20;;;;;;5013063;28;20464;-77
2023/04/19 01:05:00;;;;;;;39.60;30.80;;;9.70;79.20;;;;;;5017159;28;20034;-76
2023/04/19 01:07:26;;;;;;;40.22;32.15;;;9.60;79.10;;;;;;5015428;28;20030;-76
2023/04/19 01:09:52;;;;;;;35.75;30.95;;;9.60;79.20;;;;;;5020137;28;20029;-75
2023/04/19 01:12:17;;;;;;;35.80;31.52;;;9.60;79.20;;;;;;5019743;28;20044;-78
2023/04/19 01:14:43;;;;;;;38.47;32.33;;;9.60;79.30;;;;;;5016906;28;20029;-78
2023/04/19 01:17:09;;;;;;;39.30;31.38;;;9.60;79.40;;;;;;5014410;28;20042;-77
2023/04/19 01:19:36;;;;;;;37.60;31.33;;;9.60;79.40;;;;;;5011019;28;20041;-76
2023/04/19 01:22:05;;;;;;;38.00;32.85;;;9.60;79.60;;;;;;5026791;28;20025;-75
2023/04/19 01:24:31;;;;;;;36.50;31.25;;;9.50;79.60;;;;;;5013297;28;20033;-76
2023/04/19 01:26:56;;;;;;;38.45;32.25;;;9.50;79.60;;;;;;5018868;28;20459;-77
2023/04/19 01:29:22;;;;;;;35.95;30.63;;;9.50;79.80;;;;;;5018721;28;20022;-77
2023/04/19 01:31:52;;;;;;;36.40;31.98;;;9.50;79.80;;;;;;5025146;28;20045;-76
2023/04/19 01:34:18;;;;;;;38.58;30.50;;;9.40;79.90;;;;;;5012206;28;20451;-78
2023/04/19 01:36:44;;;;;;;38.22;32.05;;;9.40;79.90;;;;;;5023164;28;20071;-75
2023/04/19 01:39:10;;;;;;;38.55;32.15;;;9.40;79.80;;;;;;5013366;28;20064;-75
2023/04/19 01:41:36;;;;;;;39.65;32.05;;;9.30;80.00;;;;;;5018803;28;20044;-76
2023/04/19 01:44:02;;;;;;;39.05;32.10;;;9.40;80.20;;;;;;5024639;28;20386;-79
2023/04/19 01:46:28;;;;;;;40.60;32.35;;;9.30;80.30;;;;;;5024198;28;20033;-77
2023/04/19 01:48:53;;;;;;;38.58;32.83;;;9.20;80.40;;;;;;5019090;28;20542;-75
2023/04/19 01:51:20;;;;;;;42.67;32.45;;;9.20;80.40;;;;;;5014024;28;20798;-75
2023/04/19 01:53:51;;;;;;;38.40;31.83;;;9.20;80.60;;;;;;5015204;28;20478;-74
2023/04/19 01:56:17;;;;;;;39.38;31.35;;;9.20;80.60;;;;;;5019639;28;20036;-76
2023/04/19 01:58:42;;;;;;;39.33;32.90;;;9.10;80.70;;;;;;5027688;28;20037;-76
2023/04/19 02:01:11;;;;;;;40.25;32.20;;;9.10;80.70;;;;;;5027018;28;20738;-75
2023/04/19 02:03:37;;;;;;;38.30;31.52;;;9.10;80.80;;;;;;5034781;28;20060;-81
2023/04/19 02:06:03;;;;;;;39.70;32.08;;;9.10;80.70;;;;;;5022473;28;20038;-77
2023/04/19 02:08:29;;;;;;;37.90;31.92;;;9.10;80.70;;;;;;5033973;28;20025;-75
2023/04/19 02:10:55;;;;;;;39.00;32.83;;;9.10;80.90;;;;;;5032502;28;20048;-75
2023/04/19 02:13:20;;;;;;;39.38;32.28;;;9.00;81.00;;;;;;5031073;28;20023;-74
2023/04/19 02:15:46;;;;;;;37.75;31.40;;;9.00;81.20;;;;;;5025635;28;20429;-74
2023/04/19 02:18:12;;;;;;;40.22;32.80;;;9.00;81.10;;;;;;5031923;28;20082;-75
2023/04/19 02:20:38;;;;;;;38.28;32.08;;;9.00;81.10;;;;;;5027354;28;20414;-77
2023/04/19 02:23:04;;;;;;;39.35;31.77;;;8.90;81.10;;;;;;5024825;28;20032;-74
2023/04/19 02:25:30;;;;;;;41.63;32.78;;;8.90;81.20;;;;;;5024336;28;20033;-74
2023/04/19 02:27:55;;;;;;;38.75;32.72;;;8.90;81.30;;;;;;5028109;28;20489;-74
2023/04/19 02:30:21;;;;;;;40.35;33.88;;;8.90;81.30;;;;;;5027511;28;20976;-76
2023/04/19 02:32:48;;;;;;;36.97;31.25;;;8.90;81.30;;;;;;5029987;28;20136;-76
2023/04/19 02:35:13;;;;;;;37.67;31.95;;;8.90;81.20;;;;;;5028543;28;20026;-75
2023/04/19 02:37:39;;;;;;;40.10;33.65;;;8.80;81.40;;;;;;5025270;28;20034;-75
2023/04/19 02:40:06;;;;;;;41.65;33.28;;;8.80;81.50;;;;;;5021441;28;20025;-75
2023/04/19 02:42:32;;;;;;;41.50;33.58;;;8.80;81.50;;;;;;5029230;28;20052;-76
2023/04/19 02:44:58;;;;;;;42.28;33.67;;;8.80;81.50;;;;;;5024803;28;20478;-74
2023/04/19 02:47:23;;;;;;;41.65;34.55;;;8.80;81.50;;;;;;5023843;28;20106;-76
2023/04/19 02:49:49;;;;;;;41.17;32.22;;;8.70;81.50;;;;;;5025702;28;20494;-74
2023/04/19 02:52:14;;;;;;;42.67;34.53;;;8.70;81.70;;;;;;5030251;28;20033;-75
2023/04/19 02:54:40;;;;;;;43.63;35.00;;;8.70;81.70;;;;;;5018499;28;20453;-76
2023/04/19 02:57:06;;;;;;;40.58;34.63;;;8.70;81.70;;;;;;5023737;28;20378;-75
2023/04/19 02:59:31;;;;;;;39.25;32.60;;;8.60;81.80;;;;;;5022453;28;20069;-76
2023/04/19 03:01:58;;;;;;;41.40;34.28;;;8.60;81.90;;;;;;5024688;28;20148;-76
2023/04/19 03:04:24;;;;;;;41.13;32.88;;;8.60;81.80;;;;;;5020425;28;20021;-76
2023/04/19 03:06:52;;;;;;;40.72;33.97;;;8.60;81.90;;;;;;5028456;28;20450;-78
2023/04/19 03:09:17;;;;;;;43.47;34.20;;;8.60;81.90;;;;;;5025935;28;20025;-76
2023/04/19 03:11:43;;;;;;;43.00;34.28;;;8.60;82.00;;;;;;5029811;28;20053;-74
2023/04/19 03:14:09;;;;;;;41.30;34.75;;;8.60;82.10;;;;;;5030791;28;20087;-76
2023/04/19 03:16:35;;;;;;;39.95;34.35;;;8.60;82.10;;;;;;5025359;28;20041;-77
2023/04/19 03:19:01;;;;;;;43.80;35.38;;;8.60;82.20;;;;;;5033839;28;20039;-76
2023/04/19 03:21:27;;;;;;;44.83;34.60;;;8.50;82.20;;;;;;5027342;28;20041;-75
2023/04/19 03:23:54;;;;;;;42.75;35.20;;;8.50;82.30;;;;;;5036136;28;20119;-75
2023/04/19 03:26:20;;;;;;;39.15;32.75;;;8.50;82.30;;;;;;5034574;28;20042;-75
2023/04/19 03:28:45;;;;;;;44.80;35.40;;;8.50;82.30;;;;;;5027230;28;20029;-76
2023/04/19 03:31:11;;;;;;;44.20;35.17;;;8.40;82.50;;;;;;5032718;28;20128;-75
2023/04/19 03:33:37;;;;;;;42.20;34.97;;;8.40;82.70;;;;;;5028146;28;20106;-76
2023/04/19 03:36:02;;;;;;;42.08;34.83;;;8.40;82.60;;;;;;5027686;28;20033;-75
2023/04/19 03:38:29;;;;;;;44.40;36.10;;;8.40;82.70;;;;;;5018637;28;20029;-76
2023/04/19 03:40:56;;;;;;;41.20;35.30;;;8.40;82.70;;;;;;5032199;28;20021;-73
2023/04/19 03:43:23;;;;;;;45.28;36.65;;;8.40;82.70;;;;;;5021461;28;20542;-75
2023/04/19 03:45:49;;;;;;;43.72;36.70;;;8.30;82.80;;;;;;5033112;28;20466;-75
2023/04/19 03:48:14;;;;;;;43.58;34.97;;;8.30;82.90;;;;;;5021529;28;20021;-76
2023/04/19 03:50:40;;;;;;;46.38;37.38;;;8.30;82.90;;;;;;5028479;28;20462;-75
2023/04/19 03:53:06;;;;;;;46.67;38.55;;;8.30;83.00;;;;;;5024884;28;20499;-73
2023/04/19 03:55:31;;;;;;;43.42;36.33;;;8.30;83.00;;;;;;5019546;28;20184;-76
2023/04/19 03:57:57;;;;;;;49.83;39.17;;;8.30;83.00;;;;;;5015941;28;20327;-74
2023/04/19 04:00:23;;;;;;;45.40;37.03;;;8.30;83.00;;;;;;5020230;28;20057;-74
2023/04/19 04:02:49;;;;;;;45.40;37.05;;;8.40;83.10;;;;;;5028143;28;20042;-77
2023/04/19 04:05:14;;;;;;;46.60;37.33;;;8.40;83.00;;;;;;5019845;28;20555;-82
2023/04/19 04:07:40;;;;;;;45.80;36.78;;;8.40;82.90;;;;;;5021475;28;20039;-77
2023/04/19 04:10:07;;;;;;;44.88;36.22;;;8.40;83.00;;;;;;5023066;28;20032;-78
2023/04/19 04:12:32;;;;;;;44.70;36.42;;;8.50;83.00;;;;;;5013537;28;20056;-77
2023/04/19 04:14:58;;;;;;;42.35;35.40;;;8.50;83.00;;;;;;5032566;28;20454;-76
2023/04/19 04:17:24;;;;;;;42.00;34.85;;;8.60;83.00;;;;;;5030800;28;20037;-77
2023/04/19 04:19:50;;;;;;;43.28;35.22;;;8.60;82.80;;;;;;5023424;28;20033;-75
2023/04/19 04:22:16;;;;;;;43.70;35.35;;;8.60;82.90;;;;;;5024412;28;20034;-75
2023/04/19 04:24:42;;;;;;;44.75;37.38;;;8.70;82.80;;;;;;5032349;28;20481;-76
2023/04/19 04:27:11;;;;;;;42.97;34.70;;;8.70;82.70;;;;;;5021005;28;20038;-78
2023/04/19 04:29:38;;;;;;;44.15;36.42;;;8.80;82.60;;;;;;5022788;28;20057;-78
2023/04/19 04:32:09;;;;;;;44.38;37.70;;;8.80;82.50;;;;;;5019153;28;20041;-76
2023/04/19 04:34:36;;;;;;;45.65;37.03;;;8.80;82.80;;;;;;5023466;28;20029;-77
2023/04/19 04:37:02;;;;;;;43.40;35.83;;;8.80;83.10;;;;;;5026098;28;20045;-76
2023/04/19 04:39:28;;;;;;;42.83;35.95;;;8.80;83.10;;;;;;5019680;28;20021;-80
2023/04/19 04:41:56;;;;;;;42.00;35.30;;;8.80;82.90;;;;;;5009451;28;20034;-77
2023/04/19 04:44:22;;;;;;;43.95;36.38;;;8.80;83.20;;;;;;5018780;28;20026;-77
2023/04/19 04:46:48;;;;;;;47.53;36.25;;;8.80;83.20;;;;;;5015928;28;20037;-77
2023/04/19 04:49:13;;;;;;;42.35;35.70;;;8.80;83.10;;;;;;5016309;28;20378;-79
2023/04/19 04:51:39;;;;;;;41.10;33.92;;;8.80;83.20;;;;;;5013025;28;20485;-75
2023/04/19 04:54:05;;;;;;;43.90;35.60;;;8.80;83.30;;;;;;5024636;28;20029;-77
2023/04/19 04:56:30;;;;;;;45.80;36.40;;;8.80;83.40;;;;;;5021026;28;20560;-76
2023/04/19 04:58:56;;;;;;;42.53;36.28;;;8.80;83.30;;;;;;5022133;28;20518;-77
2023/04/19 05:01:22;;;;;;;43.17;34.67;;;8.90;83.40;;;;;;5022466;28;20539;-78
2023/04/19 05:03:49;;;;;;;45.47;37.05;;;8.80;83.40;;;;;;5019840;28;20037;-79
2023/04/19 05:06:15;;;;;;;44.03;35.53;;;8.80;83.40;;;;;;5017668;28;20044;-76
2023/04/19 05:08:40;;;;;;;44.22;34.70;;;8.90;83.40;;;;;;5028524;28;20361;-75
2023/04/19 05:11:07;;;;;;;44.00;36.53;;;9.00;83.30;;;;;;5021718;28;20417;-79
2023/04/19 05:13:32;;;;;;;43.75;35.28;;;9.00;83.40;;;;;;5019135;28;20032;-75
2023/04/19 05:15:58;;;;;;;46.42;36.60;;;8.90;83.40;;;;;;5018074;28;20037;-80
2023/04/19 05:18:24;;;;;;;46.45;37.08;;;9.00;83.30;;;;;;5013926;28;20059;-76
2023/04/19 05:20:50;;;;;;;44.65;36.28;;;9.00;83.50;;;;;;5018440;28;20488;-76
2023/04/19 05:23:15;;;;;;;43.97;35.45;;;9.10;83.40;;;;;;5015099;28;20378;-76
2023/04/19 05:25:41;;;;;;;45.03;36.10;;;9.10;83.30;;;;;;5016103;28;20348;-79
2023/04/19 05:28:07;;;;;;;41.53;34.25;;;9.10;83.10;;;;;;5024070;28;20018;-78
2023/04/19 05:30:32;;;;;;;48.05;35.05;;;9.10;83.10;;;;;;5022242;28;20037;-76
2023/04/19 05:32:58;;;;;;;45.17;36.20;;;9.10;83.10;;;;;;5017185;28;20044;-75
2023/04/19 05:35:24;;;;;;;42.53;35.13;;;9.10;83.20;;;;;;5016637;28;20116;-77
2023/04/19 05:37:50;;;;;;;41.53;34.00;;;9.20;82.90;;;;;;5014864;28;20045;-75
2023/04/19 05:40:15;;;;;;;42.90;34.42;;;9.30;82.80;;;;;;5023647;28;20025;-75
2023/04/19 05:42:42;;;;;;;42.47;34.58;;;9.40;82.70;;;;;;5025338;28;20657;-74
2023/04/19 05:45:08;;;;;;;40.40;33.85;;;9.40;82.50;;;;;;5014319;28;20477;-74
2023/04/19 05:47:34;;;;;;;39.60;33.92;;;9.50;82.40;;;;;;5018616;28;20211;-74
2023/04/19 05:49:59;;;;;;;42.50;34.72;;;9.60;82.20;;;;;;5014233;28;20808;-73
2023/04/19 05:52:25;;;;;;;42.95;34.88;;;9.60;82.00;;;;;;5008271;28;20538;-72
2023/04/19 05:54:51;;;;;;;42.60;33.75;;;9.70;81.90;;;;;;5021769;28;20024;-75
2023/04/19 05:57:16;;;;;;;43.42;33.35;;;9.80;81.90;;;;;;5013123;28;20042;-75
2023/04/19 05:59:42;;;;;;;40.15;32.75;;;9.90;81.80;;;;;;5006316;28;20410;-75
2023/04/19 06:02:08;;;;;;;43.17;34.00;;;9.90;81.70;;;;;;5023979;28;20344;-74
2023/04/19 06:04:34;;;;;;;40.13;33.88;;;10.10;81.40;;;;;;5013938;28;20026;-73
2023/04/19 06:07:00;;;;;;;39.03;32.10;;;10.20;81.10;;;;;;5028451;28;20115;-73
2023/04/19 06:09:26;;;;;;;40.55;33.38;;;10.30;80.90;;;;;;5011842;28;20028;-74
2023/04/19 06:11:53;;;;;;;39.70;33.78;;;10.40;80.80;;;;;;5025422;28;20045;-74
2023/04/19 06:14:19;;;;;;;38.67;32.53;;;10.50;80.70;;;;;;5029136;28;20092;-72
2023/04/19 06:16:45;;;;;;;38.60;31.70;;;10.60;80.60;;;;;;5018842;28;20417;-73
2023/04/19 06:19:10;;;;;;;37.78;31.35;;;10.70;80.30;;;;;;5021307;28;20022;-74
2023/04/19 06:21:36;;;;;;;37.00;29.13;;;10.80;80.30;;;;;;5015348;28;20033;-73
2023/04/19 06:24:02;;;;;;;37.63;30.75;;;11.00;79.90;;;;;;5011771;28;20048;-75
2023/04/19 06:26:28;;;;;;;37.20;30.33;;;11.10;79.40;;;;;;5018074;28;20061;-75
2023/04/19 06:28:54;;;;;;;37.65;30.65;;;11.20;79.30;;;;;;5005854;28;20053;-73
2023/04/19 06:31:20;;;;;;;37.40;28.80;;;11.30;78.90;;;;;;5007808;28;20100;-73
2023/04/19 06:33:45;;;;;;;40.05;28.25;;;11.50;78.60;;;;;;5020156;28;20026;-75
2023/04/19 06:36:11;;;;;;;33.50;28.13;;;11.50;78.20;;;;;;5014093;28;20061;-75
2023/04/19 06:38:37;;;;;;;35.67;29.50;;;11.60;77.90;;;;;;5011913;28;20029;-76
2023/04/19 06:41:03;;;;;;;35.58;28.50;;;11.70;77.40;;;;;;5021550;28;20049;-76
2023/04/19 06:43:29;;;;;;;38.00;28.33;;;11.80;77.20;;;;;;5018626;28;20029;-77
2023/04/19 06:45:59;;;;;;;32.97;27.92;;;11.90;77.20;;;;;;5013269;28;20037;-79
2023/04/19 06:48:26;;;;;;;32.80;28.58;;;12.00;76.90;;;;;;5014477;28;20025;-79
2023/04/19 06:50:55;;;;;;;32.67;28.33;;;12.10;76.80;;;;;;5017257;28;20017;-76
2023/04/19 06:53:22;;;;;;;31.55;26.85;;;12.20;76.60;;;;;;5033200;28;20489;-81
2023/04/19 06:55:47;;;;;;;34.15;27.85;;;12.40;76.20;;;;;;5015284;28;20022;-79
2023/04/19 06:58:13;;;;;;;32.38;27.65;;;12.40;75.60;;;;;;5029535;28;20072;-79
2023/04/19 07:00:39;;;;;;;35.42;26.77;;;12.50;75.60;;;;;;5020965;28;20038;-77
2023/04/19 07:03:05;;;;;;;30.98;26.45;;;12.60;75.40;;;;;;5017156;28;20374;-74
2023/04/19 07:05:31;;;;;;;32.22;25.08;;;12.70;74.60;;;;;;5016565;28;20036;-72
2023/04/19 07:07:57;;;;;;;30.05;25.45;;;12.80;74.00;;;;;;5016815;28;20447;-76
2023/04/19 07:10:23;;;;;;;30.92;26.02;;;12.90;74.50;;;;;;5021132;28;20030;-76
2023/04/19 07:12:49;;;;;;;29.85;25.20;;;13.10;73.40;;;;;;5020658;28;20544;-76
2023/04/19 07:15:15;;;;;;;28.38;24.80;;;13.10;73.30;;;;;;5019410;28;20461;-76
2023/04/19 07:17:41;;;;;;;30.80;24.63;;;13.20;72.90;;;;;;5030440;28;20047;-76
2023/04/19 07:20:08;;;;;;;29.65;24.70;;;13.30;72.30;;;;;;5027414;28;20034;-76
2023/04/19 07:22:34;;;;;;;27.73;23.88;;;13.50;72.90;;;;;;5017707;28;20040;-77
2023/04/19 07:25:00;;;;;;;28.95;23.42;;;13.60;71.70;;;;;;5029481;28;20040;-77
2023/04/19 07:27:25;;;;;;;23.27;20.33;;;13.60;71.20;;;;;;5017158;28;20032;-76
2023/04/19 07:29:52;;;;;;;27.67;22.70;;;13.80;69.60;;;;;;5020499;28;20170;-76
2023/04/19 07:32:18;;;;;;;26.73;21.60;;;13.70;70.40;;;;;;5020007;28;20569;-77
2023/04/19 07:34:44;;;;;;;23.73;20.55;;;13.90;70.70;;;;;;5019607;28;20046;-78
2023/04/19 07:37:10;;;;;;;26.02;21.40;;;14.00;69.30;;;;;;5021869;28;20037;-78
2023/04/19 07:39:36;;;;;;;27.92;22.38;;;14.00;69.20;;;;;;5019783;28;20029;-77
2023/04/19 07:42:02;;;;;;;24.13;21.10;;;14.10;68.80;;;;;;5029033;28;20654;-76
2023/04/19 07:44:27;;;;;;;25.50;20.63;;;14.10;68.60;;;;;;5026333;28;20045;-76
2023/04/19 07:46:53;;;;;;;24.25;20.35;;;14.20;68.50;;;;;;5027663;28;20057;-75
2023/04/19 07:49:19;;;;;;;22.88;19.13;;;14.40;69.10;;;;;;5030029;28;20026;-75
2023/04/19 07:51:44;;;;;;;25.33;18.20;;;14.50;67.30;;;;;;5017959;28;20033;-76
2023/04/19 07:54:10;;;;;;;23.55;18.48;;;14.60;66.70;;;;;;5015752;28;20650;-75
2023/04/19 07:56:39;;;;;;;21.88;18.55;;;14.70;66.90;;;;;;5016159;28;20067;-77
2023/04/19 07:59:05;;;;;;;23.92;19.25;;;14.90;67.00;;;;;;5027021;28;20045;-78
2023/04/19 08:01:30;;;;;;;21.95;18.20;;;15.00;65.60;;;;;;5011674;28;20067;-73
2023/04/19 08:03:56;;;;;;;24.42;19.48;;;15.00;65.80;;;;;;5018407;28;20029;-75
2023/04/19 08:06:22;;;;;;;21.60;18.13;;;15.20;66.20;;;;;;5019254;28;20057;-74
2023/04/19 08:08:48;;;;;;;19.52;16.90;;;15.30;65.00;;;;;;5021579;28;20054;-75
2023/04/19 08:11:14;;;;;;;20.98;17.55;;;15.20;64.90;;;;;;5017747;28;20358;-75
2023/04/19 08:13:39;;;;;;;21.33;17.15;;;15.30;65.20;;;;;;5025172;28;20033;-75
2023/04/19 08:16:05;;;;;;;19.70;17.10;;;15.30;65.40;;;;;;5029205;28;20128;-75
2023/04/19 08:18:33;;;;;;;23.13;18.55;;;15.50;65.50;;;;;;5026686;28;20029;-75
2023/04/19 08:20:59;;;;;;;20.80;15.82;;;15.70;64.40;;;;;;5012521;28;20056;-76
2023/04/19 08:23:24;;;;;;;17.60;15.23;;;15.90;63.20;;;;;;5023863;28;20018;-77
2023/04/19 08:25:50;;;;;;;18.92;16.02;;;15.80;62.40;;;;;;5015321;28;20047;-76
2023/04/19 08:28:17;;;;;;;19.48;16.05;;;15.90;62.50;;;;;;5017632;28;20025;-76
2023/04/19 08:30:43;;;;;;;17.55;15.30;;;16.10;62.50;;;;;;5032662;28;20028;-78
2023/04/19 08:33:09;;;;;;;20.02;15.32;;;16.20;62.50;;;;;;5016019;28;20084;-75
2023/04/19 08:35:38;;;;;;;18.27;15.18;;;16.20;60.80;;;;;;5009874;28;20034;-76
2023/04/19 08:38:03;;;;;;;19.60;14.40;;;16.10;61.40;;;;;;5017840;28;20089;-77
2023/04/19 08:40:32;;;;;;;19.27;15.32;;;16.10;61.40;;;;;;5022197;28;20034;-78
2023/04/19 08:42:58;;;;;;;18.17;15.65;;;16.20;61.40;;;;;;5015377;28;20492;-77
2023/04/19 08:45:27;;;;;;;18.20;15.15;;;16.30;60.90;;;;;;5017565;28;20025;-75
2023/04/19 08:47:57;;;;;;;20.10;15.57;;;16.40;60.30;;;;;;5021104;28;20032;-74
2023/04/19 08:50:23;;;;;;;18.10;14.25;;;16.50;60.10;;;;;;5019518;28;20061;-77
2023/04/19 08:52:49;;;;;;;17.35;14.27;;;16.60;59.50;;;;;;5024261;28;20114;-74
2023/04/19 08:55:15;;;;;;;17.83;14.07;;;16.50;59.30;;;;;;5018309;28;20100;-76
2023/04/19 08:57:41;;;;;;;19.10;13.85;;;16.50;59.20;;;;;;5018221;28;20068;-76
2023/04/19 09:00:09;;;;;;;18.98;14.68;;;16.50;59.40;;;;;;5025001;28;20079;-77
2023/04/19 09:02:48;;;;;;;20.60;16.05;;;16.50;60.80;;;;;;5017697;28;20126;-76
2023/04/19 09:05:16;;;;;;;19.20;14.70;;;16.80;58.80;;;;;;5019840;28;20165;-76
2023/04/19 09:07:43;;;;;;;19.83;15.85;;;17.00;59.50;;;;;;5014736;28;20775;-77
2023/04/19 09:10:11;;;;;;;17.17;14.45;;;16.90;58.90;;;;;;5016677;28;20393;-78
2023/04/19 09:12:38;;;;;;;17.38;14.48;;;17.10;58.50;;;;;;5021740;28;20414;-80
2023/04/19 09:15:07;;;;;;;16.80;14.55;;;17.10;59.70;;;;;;5013850;28;20530;-79
2023/04/19 09:17:34;;;;;;;19.90;15.23;;;17.30;57.80;;;;;;5016156;28;20064;-79
2023/04/19 09:20:00;;;;;;;20.48;14.55;;;16.90;57.00;;;;;;5018199;28;20018;-81
2023/04/19 09:22:26;;;;;;;19.60;14.60;;;16.50;59.90;;;;;;5014679;28;20444;-80
2023/04/19 09:24:52;;;;;;;17.42;13.98;;;16.80;59.20;;;;;;5031655;28;20473;-78
2023/04/19 09:27:31;;;;;;;16.23;14.05;;;17.10;59.10;;;;;;5011557;28;20045;-79
2023/04/19 09:30:00;;;;;;;17.38;14.85;;;17.70;57.60;;;;;;5028298;28;20120;-81
2023/04/19 09:32:26;;;;;;;19.27;14.85;;;18.00;56.80;;;;;;5017842;28;20041;-79
2023/04/19 09:34:54;;;;;;;18.20;14.43;;;18.20;55.60;;;;;;5010585;28;20037;-78
2023/04/19 09:37:21;;;;;;;16.55;13.98;;;18.30;56.30;;;;;;5026241;28;20462;-76
2023/04/19 09:39:46;;;;;;;16.00;13.93;;;18.60;54.40;;;;;;5019113;28;20024;-76
2023/04/19 09:42:12;;;;;;;16.90;13.77;;;18.40;55.40;;;;;;5016438;28;20049;-78
2023/04/19 09:44:38;;;;;;;16.35;13.57;;;18.70;54.50;;;;;;5016823;28;20057;-77
2023/04/19 09:47:24;;;;;;;16.70;13.73;;;18.70;54.80;;;;;;5012290;28;20370;-77
2023/04/19 09:50:09;;;;;;;17.60;13.00;;;18.50;54.00;;;;;;5009671;28;20117;-77
2023/04/19 09:52:36;;;;;;;16.42;14.63;;;18.10;56.00;;;;;;5009308;28;20038;-76
2023/04/19 09:55:04;;;;;;;15.93;13.75;;;18.60;55.20;;;;;;5019511;28;20052;-77
2023/04/19 09:57:31;;;;;;;16.52;14.50;;;18.50;54.60;;;;;;5015802;28;20045;-78
2023/04/19 09:59:58;;;;;;;16.08;13.90;;;18.60;54.90;;;;;;5013275;28;20045;-77
2023/04/19 10:02:29;;;;;;;14.95;13.35;;;18.60;55.50;;;;;;5020687;28;20064;-83
2023/04/19 10:04:55;;;;;;;16.38;13.32;;;18.50;54.00;;;;;;5024334;28;20025;-83
2023/04/19 10:07:22;;;;;;;16.58;13.27;;;18.60;53.80;;;;;;5044953;28;20069;-82
2023/04/19 10:09:49;;;;;;;17.08;13.27;;;18.50;54.40;;;;;;5028764;28;20034;-82
2023/04/19 10:12:15;;;;;;;17.55;13.48;;;18.60;55.00;;;;;;5026196;28;20263;-81
2023/04/19 10:14:42;;;;;;;19.35;14.38;;;18.40;55.20;;;;;;5022905;28;20499;-82
2023/04/19 10:17:08;;;;;;;16.10;14.25;;;18.40;54.60;;;;;;5022018;28;20418;-81
2023/04/19 10:19:36;;;;;;;16.48;12.88;;;18.90;54.10;;;;;;5021441;28;20026;-81
2023/04/19 10:22:06;;;;;;;15.98;14.20;;;18.80;53.10;;;;;;5027724;28;20096;-79
2023/04/19 10:24:32;;;;;;;16.73;13.77;;;18.50;53.40;;;;;;5027801;28;20588;-83
2023/04/19 10:27:11;;;;;;;15.63;12.95;;;18.10;54.50;;;;;;5017807;28;20393;-84
2023/04/19 10:29:54;;;;;;;14.20;12.32;;;18.10;55.00;;;;;;5021050;28;20022;-87
2023/04/19 10:32:20;;;;;;;16.33;12.93;;;18.10;54.20;;;;;;5022631;28;20041;-82
2023/04/19 10:34:46;;;;;;;13.50;12.07;;;18.30;54.40;;;;;;5019619;28;20029;-81
2023/04/19 10:37:15;;;;;;;13.63;12.02;;;18.70;54.20;;;;;;5013741;28;20042;-82
2023/04/19 10:39:42;;;;;;;17.20;12.48;;;19.00;52.20;;;;;;5017361;28;20053;-83
2023/04/19 10:42:08;;;;;;;15.02;12.25;;;19.00;52.50;;;;;;5007818;28;20462;-83
2023/04/19 10:44:34;;;;;;;13.65;12.13;;;19.00;52.10;;;;;;5017886;28;20083;-82
2023/04/19 10:47:00;;;;;;;16.83;12.15;;;19.10;52.40;;;;;;5014261;28;20045;-81
2023/04/19 10:49:27;;;;;;;12.70;10.82;;;19.10;52.10;;;;;;5017570;28;20025;-82
2023/04/19 10:51:58;;;;;;;13.38;10.27;;;19.40;51.80;;;;;;5016990;28;20097;-84
2023/04/19 10:54:37;;;;;;;11.70;10.00;;;19.10;51.10;;;;;;5025914;28;20021;-83
2023/04/19 10:57:09;;;;;;;12.68;10.32;;;18.90;51.20;;;;;;5014371;28;20038;-81
2023/04/19 10:59:43;;;;;;;12.98;9.30;;;18.50;52.80;;;;;;5019212;28;20052;-84
2023/04/19 11:02:21;;;;;;;10.98;9.13;;;18.50;52.40;;;;;;5017330;28;20126;-80
2023/04/19 11:04:49;;;;;;;11.70;9.32;;;17.80;52.30;;;;;;5026208;28;20030;-81
2023/04/19 11:07:20;;;;;;;10.88;8.98;;;17.50;52.90;;;;;;5013681;28;20057;-83
2023/04/19 11:09:47;;;;;;;11.63;9.23;;;17.30;54.00;;;;;;5014080;28;20065;-81
2023/04/19 11:12:18;;;;;;;12.30;9.82;;;17.50;53.70;;;;;;5014705;28;20030;-84
2023/04/19 11:14:52;;;;;;;11.27;8.68;;;18.00;53.80;;;;;;5018030;28;20040;-81
2023/04/19 11:17:26;;;;;;;12.70;8.77;;;18.40;50.30;;;;;;5025660;28;20362;-81
2023/04/19 11:19:56;;;;;;;;;;;18.40;50.70;;;;;;5026092;28;20028;-86
2023/04/19 11:22:44;;;;;;;13.40;9.88;;;17.90;51.90;;;;;;5084000;23;19917;-81
2023/04/19 11:25:12;;;;;;;11.48;9.07;;;17.40;53.50;;;;;;4986512;28;20023;-82
2023/04/19 11:27:41;;;;;;;15.18;9.57;;;17.70;53.30;;;;;;4992291;28;20030;-82
2023/04/19 11:30:15;;;;;;;13.27;8.98;;;18.40;52.30;;;;;;4994550;28;20014;-81
2023/04/19 11:32:45;;;;;;;;;;;19.10;51.10;;;;;;4991372;28;20031;-81
2023/04/19 11:35:12;;;;;;;12.90;8.93;;;19.60;48.90;;;;;;4997766;28;20318;-82
2023/04/19 11:37:38;;;;;;;13.35;8.35;;;19.60;48.50;;;;;;4994351;28;20034;-82
2023/04/19 11:40:05;;;;;;;10.45;8.48;;;19.40;49.70;;;;;;4990995;28;20066;-84
2023/04/19 11:42:32;;;;;;;10.35;7.85;;;19.00;50.40;;;;;;4989255;28;20040;-80
2023/04/19 11:44:58;;;;;;;12.02;9.45;;;19.50;48.80;;;;;;4984228;28;20022;-80
2023/04/19 11:47:25;;;;;;;11.20;9.13;;;18.70;49.10;;;;;;4999126;28;20034;-82
2023/04/19 11:49:55;;;;;;;11.43;9.10;;;18.50;50.30;;;;;;4995208;28;20116;-79
2023/04/19 11:52:47;;;;;;;11.60;9.32;;;18.10;51.40;;;;;;4992865;28;20099;-83
2023/04/19 11:55:33;;;;;;;13.20;10.02;;;18.00;51.70;;;;;;4991007;28;20031;-81
2023/04/19 11:57:58;;;;;;;11.88;9.45;;;18.00;51.50;;;;;;5002229;28;20039;-81
2023/04/19 12:00:29;;;;;;;18.50;9.95;;;18.20;51.50;;;;;;5001759;28;20041;-80
2023/04/19 12:02:55;;;;;;;11.63;8.63;;;18.60;50.80;;;;;;4980488;28;20045;-84
2023/04/19 12:05:23;;;;;;;13.90;9.35;;;19.10;49.90;;;;;;4990329;28;20451;-82
2023/04/19 12:08:31;;;;;;;11.52;8.50;;;19.50;48.10;;;;;;4988384;28;20855;-82
2023/04/19 12:10:57;;;;;;;12.00;9.73;;;19.60;46.90;;;;;;4972488;28;21105;-84
2023/04/19 12:13:26;;;;;;;15.43;11.88;;;19.40;47.20;;;;;;4979116;28;20023;-81
2023/04/19 12:15:52;;;;;;;15.00;12.18;;;19.50;47.70;;;;;;4986201;28;20391;-82
2023/04/19 12:18:18;;;;;;;14.98;12.18;;;19.00;49.60;;;;;;4995576;28;20014;-83
2023/04/19 12:20:48;;;;;;;14.07;11.93;;;18.60;50.20;;;;;;4989616;28;20045;-80
2023/04/19 12:23:15;;;;;;;15.75;12.75;;;18.10;51.60;;;;;;5003865;28;20049;-82
2023/04/19 12:25:42;;;;;;;15.95;12.95;;;18.30;50.50;;;;;;4991126;28;20034;-83
2023/04/19 12:28:08;;;;;;;16.10;13.13;;;17.60;52.60;;;;;;4997942;28;20025;-83
2023/04/19 12:30:38;;;;;;;15.55;12.93;;;17.80;52.50;;;;;;4989403;28;20026;-82
2023/04/19 12:33:05;;;;;;;14.05;12.48;;;17.70;52.60;;;;;;4980763;28;20101;-81